createdAt,value
2022-09-10T00:00:02.635Z,16.00
2022-09-10T00:01:04.625Z,16.00
2022-09-10T00:02:06.301Z,15.90
2022-09-10T00:03:08.233Z,15.90
2022-09-10T00:04:15.649Z,15.90
2022-09-10T00:05:18.092Z,15.90
2022-09-10T00:06:20.498Z,15.90
2022-09-10T00:08:40.107Z,15.80
2022-09-10T00:09:41.770Z,15.90
2022-09-10T00:10:46.678Z,15.90
2022-09-10T00:11:48.574Z,15.80
2022-09-10T00:12:51.219Z,15.90
2022-09-10T00:13:53.120Z,15.80
2022-09-10T00:14:56.369Z,15.90
2022-09-10T00:15:59.331Z,15.90
2022-09-10T00:17:01.740Z,15.90
2022-09-10T00:18:03.434Z,15.90
2022-09-10T00:19:06.542Z,15.90
2022-09-10T00:20:09.170Z,15.90
2022-09-10T00:21:14.377Z,15.90
2022-09-10T00:22:16.093Z,15.90
2022-09-10T00:23:19.411Z,15.90
2022-09-10T00:24:22.528Z,15.90
2022-09-10T00:25:24.244Z,15.90
2022-09-10T00:26:28.666Z,15.90
2022-09-10T00:27:30.299Z,15.90
2022-09-10T00:28:31.959Z,15.90
2022-09-10T00:29:33.625Z,15.90
2022-09-10T00:30:41.288Z,16.00
2022-09-10T00:31:43.661Z,16.00
2022-09-10T00:32:45.737Z,16.00
2022-09-10T00:33:47.759Z,16.00
2022-09-10T00:34:49.442Z,16.00
2022-09-10T00:35:51.735Z,16.00
2022-09-10T00:36:53.359Z,16.00
2022-09-10T00:37:55.021Z,16.10
2022-09-10T00:39:02.107Z,16.10
2022-09-10T00:40:04.755Z,16.10
2022-09-10T00:41:08.161Z,16.10
2022-09-10T00:42:11.852Z,16.10
2022-09-10T00:43:19.643Z,16.10
2022-09-10T00:44:42.148Z,16.10
2022-09-10T00:45:45.631Z,16.10
2022-09-10T00:46:51.623Z,16.10
2022-09-10T00:47:58.022Z,16.10
2022-09-10T00:49:02.779Z,16.10
2022-09-10T00:50:22.071Z,16.10
2022-09-10T00:51:26.844Z,16.20
2022-09-10T00:52:29.378Z,16.20
2022-09-10T00:53:31.663Z,16.20
2022-09-10T00:54:36.107Z,16.30
2022-09-10T00:55:40.926Z,16.30
2022-09-10T00:56:43.137Z,16.30
2022-09-10T00:57:47.630Z,16.30
2022-09-10T00:58:49.485Z,16.40
2022-09-10T00:59:57.713Z,16.40
2022-09-10T01:01:02.260Z,16.40
2022-09-10T01:02:04.426Z,16.40
2022-09-10T01:03:08.023Z,16.40
2022-09-10T01:04:10.708Z,16.40
2022-09-10T01:05:13.656Z,16.40
2022-09-10T01:06:15.839Z,16.30
2022-09-10T01:07:18.912Z,16.30
2022-09-10T01:08:20.550Z,16.30
2022-09-10T01:09:25.153Z,16.30
2022-09-10T01:10:30.977Z,16.30
2022-09-10T01:11:38.681Z,16.30
2022-09-10T01:12:55.445Z,16.30
2022-09-10T01:14:13.747Z,16.30
2022-09-10T01:15:27.805Z,16.20
2022-09-10T01:16:50.197Z,16.20
2022-09-10T01:18:05.640Z,16.20
2022-09-10T01:19:13.001Z,16.20
2022-09-10T01:20:43.656Z,16.20
2022-09-10T01:22:19.031Z,16.20
2022-09-10T01:23:58.068Z,16.20
2022-09-10T01:25:23.248Z,16.10
2022-09-10T01:26:25.609Z,16.10
2022-09-10T01:27:47.595Z,16.10
2022-09-10T01:29:01.174Z,16.10
2022-09-10T01:30:06.184Z,16.10
2022-09-10T01:31:16.063Z,16.10
2022-09-10T01:32:26.834Z,16.10
2022-09-10T01:33:43.389Z,16.00
2022-09-10T01:34:53.203Z,16.00
2022-09-10T01:35:58.925Z,15.90
2022-09-10T01:37:07.890Z,15.90
2022-09-10T01:38:15.316Z,15.90
2022-09-10T01:39:19.283Z,15.80
2022-09-10T01:40:29.683Z,15.80
2022-09-10T01:41:32.004Z,15.80
2022-09-10T01:42:33.727Z,15.80
2022-09-10T01:43:36.054Z,15.70
2022-09-10T01:44:46.443Z,15.70
2022-09-10T01:46:01.370Z,15.70
2022-09-10T01:47:14.767Z,15.70
2022-09-10T01:48:26.064Z,15.80
2022-09-10T01:49:46.286Z,15.80
2022-09-10T01:50:53.715Z,15.80
2022-09-10T01:52:03.116Z,15.70
2022-09-10T01:53:30.919Z,15.70
2022-09-10T01:55:17.493Z,15.70
2022-09-10T01:56:44.738Z,15.70
2022-09-10T01:57:55.788Z,15.70
2022-09-10T01:59:10.146Z,15.70
2022-09-10T02:00:17.566Z,15.70
2022-09-10T02:01:26.177Z,15.70
2022-09-10T02:02:37.378Z,15.80
2022-09-10T02:03:41.967Z,15.70
2022-09-10T02:04:46.047Z,15.70
2022-09-10T02:05:50.797Z,15.70
2022-09-10T02:06:52.677Z,15.80
2022-09-10T02:07:59.005Z,15.80
2022-09-10T02:09:01.830Z,15.80
2022-09-10T02:10:06.582Z,15.80
2022-09-10T02:11:12.130Z,15.80
2022-09-10T02:12:21.741Z,15.80
2022-09-10T02:13:24.075Z,15.80
2022-09-10T02:14:26.408Z,15.70
2022-09-10T02:15:29.558Z,15.70
2022-09-10T02:16:37.694Z,15.70
2022-09-10T02:17:40.812Z,15.70
2022-09-10T02:18:43.513Z,15.70
2022-09-10T02:19:47.474Z,15.70
2022-09-10T02:20:55.723Z,15.60
2022-09-10T02:21:58.749Z,15.70
2022-09-10T02:23:01.916Z,15.60
2022-09-10T02:24:10.298Z,15.60
2022-09-10T02:25:12.303Z,15.60
2022-09-10T02:26:16.926Z,15.60
2022-09-10T02:27:18.923Z,15.60
2022-09-10T02:28:20.707Z,15.50
2022-09-10T02:29:22.476Z,15.50
2022-09-10T02:30:24.811Z,15.50
2022-09-10T02:31:26.866Z,15.60
2022-09-10T02:32:28.732Z,15.50
2022-09-10T02:33:31.052Z,15.50
2022-09-10T02:34:34.123Z,15.40
2022-09-10T02:35:35.793Z,15.50
2022-09-10T02:36:37.772Z,15.40
2022-09-10T02:37:39.396Z,15.40
2022-09-10T02:38:41.065Z,15.40
2022-09-10T02:39:43.386Z,15.40
2022-09-10T02:40:49.025Z,15.40
2022-09-10T02:41:50.887Z,15.40
2022-09-10T02:42:52.550Z,15.40
2022-09-10T02:43:55.510Z,15.30
2022-09-10T02:44:57.177Z,15.30
2022-09-10T02:45:59.386Z,15.30
2022-09-10T02:47:01.132Z,15.30
2022-09-10T02:48:04.204Z,15.20
2022-09-10T02:49:06.257Z,15.20
2022-09-10T02:50:08.833Z,15.20
2022-09-10T02:51:12.120Z,15.20
2022-09-10T02:52:13.783Z,15.20
2022-09-10T02:53:15.474Z,15.30
2022-09-10T02:54:19.843Z,15.20
2022-09-10T02:55:21.493Z,15.30
2022-09-10T02:56:23.754Z,15.30
2022-09-10T02:57:26.089Z,15.30
2022-09-10T02:58:27.936Z,15.30
2022-09-10T02:59:30.875Z,15.30
2022-09-10T03:00:32.641Z,15.30
2022-09-10T03:01:34.800Z,15.30
2022-09-10T03:02:36.819Z,15.30
2022-09-10T03:03:39.167Z,15.30
2022-09-10T03:04:40.831Z,15.30
2022-09-10T03:05:43.344Z,15.30
2022-09-10T03:06:45.226Z,15.40
2022-09-10T03:07:47.432Z,15.40
2022-09-10T03:08:50.005Z,15.30
2022-09-10T03:09:51.657Z,15.40
2022-09-10T03:10:53.798Z,15.40
2022-09-10T03:11:55.600Z,15.40
2022-09-10T03:12:57.453Z,15.40
2022-09-10T03:13:59.314Z,15.40
2022-09-10T03:15:00.976Z,15.40
2022-09-10T03:16:05.701Z,15.40
2022-09-10T03:17:07.527Z,15.40
2022-09-10T03:18:09.261Z,15.40
2022-09-10T03:19:10.901Z,15.40
2022-09-10T03:20:13.476Z,15.40
2022-09-10T03:21:20.645Z,15.40
2022-09-10T03:22:22.329Z,15.40
2022-09-10T03:23:23.963Z,15.40
2022-09-10T03:24:25.699Z,15.40
2022-09-10T03:25:27.357Z,15.40
2022-09-10T03:26:29.011Z,15.30
2022-09-10T03:27:30.759Z,15.30
2022-09-10T03:28:33.455Z,15.20
2022-09-10T03:29:35.322Z,15.10
2022-09-10T03:30:37.773Z,15.10
2022-09-10T03:31:39.711Z,15.10
2022-09-10T03:32:41.700Z,15.00
2022-09-10T03:33:43.404Z,15.00
2022-09-10T03:34:45.060Z,14.90
2022-09-10T03:35:48.077Z,14.90
2022-09-10T03:36:51.415Z,14.90
2022-09-10T03:37:53.043Z,14.90
2022-09-10T03:38:54.702Z,14.90
2022-09-10T03:39:56.658Z,14.90
2022-09-10T03:40:58.654Z,14.90
2022-09-10T03:42:00.278Z,14.80
2022-09-10T03:43:02.866Z,14.80
2022-09-10T03:44:05.235Z,14.80
2022-09-10T03:45:07.459Z,14.80
2022-09-10T03:46:11.104Z,14.80
2022-09-10T03:47:13.004Z,14.80
2022-09-10T03:48:16.211Z,14.80
2022-09-10T03:49:18.089Z,14.80
2022-09-10T03:50:20.290Z,14.80
2022-09-10T03:51:23.164Z,14.80
2022-09-10T03:52:26.452Z,14.80
2022-09-10T03:53:28.221Z,14.80
2022-09-10T03:54:29.875Z,14.80
2022-09-10T03:55:31.525Z,14.80
2022-09-10T03:56:33.967Z,14.70
2022-09-10T03:57:35.677Z,14.70
2022-09-10T03:58:37.893Z,14.70
2022-09-10T03:59:41.151Z,14.60
2022-09-10T04:00:43.073Z,14.60
2022-09-10T04:01:45.362Z,14.50
2022-09-10T04:02:48.274Z,14.50
2022-09-10T04:03:50.059Z,14.50
2022-09-10T04:04:51.687Z,14.40
2022-09-10T04:05:53.397Z,14.30
2022-09-10T04:06:55.244Z,14.30
2022-09-10T04:07:59.980Z,14.30
2022-09-10T04:09:01.700Z,14.20
2022-09-10T04:10:03.884Z,14.20
2022-09-10T04:11:06.516Z,14.20
2022-09-10T04:12:08.328Z,14.20
2022-09-10T04:13:10.529Z,14.10
2022-09-10T04:14:12.471Z,14.10
2022-09-10T04:15:14.335Z,14.10
2022-09-10T04:16:16.629Z,14.10
2022-09-10T04:17:18.534Z,14.00
2022-09-10T04:18:20.324Z,14.00
2022-09-10T04:19:22.035Z,14.00
2022-09-10T04:20:24.508Z,14.00
2022-09-10T04:21:26.287Z,14.10
2022-09-10T04:22:28.192Z,14.00
2022-09-10T04:23:29.861Z,14.00
2022-09-10T04:24:31.625Z,13.90
2022-09-10T04:25:33.553Z,14.00
2022-09-10T04:26:35.245Z,13.90
2022-09-10T04:27:36.913Z,13.90
2022-09-10T04:28:38.623Z,13.90
2022-09-10T04:29:41.025Z,13.90
2022-09-10T04:30:44.863Z,13.90
2022-09-10T04:31:46.796Z,13.90
2022-09-10T04:32:49.621Z,13.90
2022-09-10T04:33:51.281Z,13.90
2022-09-10T04:34:53.018Z,13.90
2022-09-10T04:35:55.193Z,13.90
2022-09-10T04:36:56.854Z,13.90
2022-09-10T04:37:58.509Z,13.90
2022-09-10T04:39:00.199Z,13.90
2022-09-10T04:40:02.294Z,13.90
2022-09-10T04:41:04.203Z,13.80
2022-09-10T04:42:08.387Z,13.80
2022-09-10T04:43:10.173Z,13.80
2022-09-10T04:44:11.816Z,13.90
2022-09-10T04:45:13.457Z,13.90
2022-09-10T04:46:15.148Z,13.90
2022-09-10T04:47:17.753Z,13.90
2022-09-10T04:48:19.403Z,13.90
2022-09-10T04:49:21.161Z,13.90
2022-09-10T04:50:22.946Z,13.90
2022-09-10T04:51:24.733Z,13.90
2022-09-10T04:52:27.500Z,13.90
2022-09-10T04:53:31.241Z,13.90
2022-09-10T04:54:37.713Z,13.90
2022-09-10T04:55:42.842Z,13.90
2022-09-10T04:56:46.697Z,13.90
2022-09-10T04:57:48.374Z,13.90
2022-09-10T04:58:50.016Z,13.90
2022-09-10T04:59:53.795Z,13.90
2022-09-10T05:00:57.074Z,13.90
2022-09-10T05:01:59.059Z,13.90
2022-09-10T05:03:01.020Z,13.90
2022-09-10T05:04:03.627Z,13.90
2022-09-10T05:05:05.849Z,14.00
2022-09-10T05:06:07.585Z,13.90
2022-09-10T05:07:09.325Z,14.00
2022-09-10T05:08:11.103Z,13.90
2022-09-10T05:09:12.829Z,14.00
2022-09-10T05:10:15.337Z,14.00
2022-09-10T05:11:19.626Z,14.00
2022-09-10T05:12:24.230Z,14.00
2022-09-10T05:13:25.940Z,14.00
2022-09-10T05:14:28.138Z,14.00
2022-09-10T05:15:29.808Z,14.00
2022-09-10T05:16:31.565Z,14.00
2022-09-10T05:17:33.725Z,14.10
2022-09-10T05:18:35.399Z,14.10
2022-09-10T05:19:37.144Z,14.10
2022-09-10T05:20:38.915Z,14.10
2022-09-10T05:21:40.549Z,14.10
2022-09-10T05:22:42.876Z,14.10
2022-09-10T05:23:45.126Z,14.10
2022-09-10T05:24:46.919Z,14.10
2022-09-10T05:25:48.779Z,14.10
2022-09-10T05:26:50.460Z,14.10
2022-09-10T05:27:52.710Z,14.10
2022-09-10T05:28:55.501Z,14.10
2022-09-10T05:29:57.596Z,14.10
2022-09-10T05:30:59.417Z,14.10
2022-09-10T05:32:01.469Z,14.10
2022-09-10T05:33:03.858Z,14.20
2022-09-10T05:34:05.585Z,14.20
2022-09-10T05:35:08.833Z,14.20
2022-09-10T05:36:10.748Z,14.20
2022-09-10T05:37:12.394Z,14.20
2022-09-10T05:38:14.050Z,14.20
2022-09-10T05:39:15.877Z,14.20
2022-09-10T05:40:17.613Z,14.20
2022-09-10T05:41:19.515Z,14.30
2022-09-10T05:42:22.303Z,14.30
2022-09-10T05:43:23.979Z,14.30
2022-09-10T05:44:26.109Z,14.30
2022-09-10T05:45:27.907Z,14.30
2022-09-10T05:46:30.884Z,14.30
2022-09-10T05:47:34.439Z,14.30
2022-09-10T05:48:39.731Z,14.40
2022-09-10T05:49:43.251Z,14.30
2022-09-10T05:50:47.868Z,14.40
2022-09-10T05:51:49.613Z,14.40
2022-09-10T05:52:51.515Z,14.40
2022-09-10T05:53:53.151Z,14.40
2022-09-10T05:54:56.388Z,14.50
2022-09-10T05:55:58.072Z,14.50
2022-09-10T05:57:00.601Z,14.60
2022-09-10T05:58:03.020Z,14.60
2022-09-10T05:59:05.565Z,14.60
2022-09-10T06:00:09.279Z,14.60
2022-09-10T06:01:11.180Z,14.70
2022-09-10T06:02:20.486Z,14.70
2022-09-10T06:03:25.084Z,14.70
2022-09-10T06:04:27.086Z,14.80
2022-09-10T06:05:28.779Z,14.80
2022-09-10T06:06:31.166Z,14.80
2022-09-10T06:07:33.048Z,14.80
2022-09-10T06:08:35.709Z,14.80
2022-09-10T06:09:37.577Z,14.80
2022-09-10T06:10:39.318Z,14.90
2022-09-10T06:11:41.856Z,14.90
2022-09-10T06:12:47.514Z,15.00
2022-09-10T06:13:49.667Z,15.00
2022-09-10T06:14:51.350Z,15.00
2022-09-10T06:15:53.703Z,15.10
2022-09-10T06:16:55.449Z,15.10
2022-09-10T06:17:57.475Z,15.20
2022-09-10T06:18:59.667Z,15.20
2022-09-10T06:20:01.415Z,15.20
2022-09-10T06:21:13.359Z,15.20
2022-09-10T06:22:14.984Z,15.30
2022-09-10T06:23:17.976Z,15.30
2022-09-10T06:24:19.822Z,15.40
2022-09-10T06:25:21.458Z,15.40
2022-09-10T06:26:23.549Z,15.40
2022-09-10T06:27:25.303Z,15.50
2022-09-10T06:28:28.476Z,15.50
2022-09-10T06:29:30.157Z,15.60
2022-09-10T06:30:32.346Z,15.60
2022-09-10T06:31:34.678Z,15.70
2022-09-10T06:32:36.563Z,15.80
2022-09-10T06:33:38.197Z,15.90
2022-09-10T06:34:39.854Z,16.00
2022-09-10T06:35:41.501Z,16.00
2022-09-10T06:36:43.666Z,16.20
2022-09-10T06:37:45.482Z,16.20
2022-09-10T06:38:47.344Z,16.30
2022-09-10T06:39:49.006Z,16.40
2022-09-10T06:40:55.817Z,16.50
2022-09-10T06:41:57.465Z,16.60
2022-09-10T06:43:02.158Z,16.70
2022-09-10T06:44:03.909Z,16.70
2022-09-10T06:45:06.032Z,16.80
2022-09-10T06:46:31.992Z,16.80
2022-09-10T06:48:53.923Z,17.00
2022-09-10T06:49:55.989Z,17.10
2022-09-10T06:50:59.188Z,17.10
2022-09-10T06:52:01.459Z,17.10
2022-09-10T06:53:03.242Z,17.20
2022-09-10T06:54:05.111Z,17.20
2022-09-10T06:55:07.140Z,17.30
2022-09-10T06:56:11.906Z,17.30
2022-09-10T06:57:13.965Z,17.40
2022-09-10T06:58:15.647Z,17.40
2022-09-10T06:59:18.403Z,17.50
2022-09-10T07:00:20.335Z,17.50
2022-09-10T07:01:23.850Z,17.50
2022-09-10T07:02:25.591Z,17.60
2022-09-10T07:03:27.253Z,17.70
2022-09-10T07:04:28.905Z,17.70
2022-09-10T07:05:33.537Z,17.80
2022-09-10T07:06:36.574Z,17.80
2022-09-10T07:07:38.834Z,17.90
2022-09-10T07:08:40.844Z,17.90
2022-09-10T07:09:43.211Z,17.90
2022-09-10T07:10:45.815Z,17.90
2022-09-10T07:11:47.502Z,17.90
2022-09-10T07:12:49.145Z,17.90
2022-09-10T07:13:52.691Z,18.00
2022-09-10T07:14:54.337Z,18.00
2022-09-10T07:15:56.158Z,18.10
2022-09-10T07:16:57.870Z,18.10
2022-09-10T07:18:00.210Z,18.10
2022-09-10T07:19:01.846Z,18.20
2022-09-10T07:20:04.360Z,18.20
2022-09-10T07:21:13.039Z,18.20
2022-09-10T07:22:14.668Z,18.30
2022-09-10T07:23:19.042Z,18.40
2022-09-10T07:24:21.431Z,18.30
2022-09-10T07:25:24.829Z,18.30
2022-09-10T07:26:26.750Z,18.30
2022-09-10T07:27:28.512Z,18.30
2022-09-10T07:28:30.298Z,18.20
2022-09-10T07:29:31.968Z,18.20
2022-09-10T07:30:35.866Z,18.20
2022-09-10T07:31:38.285Z,18.20
2022-09-10T07:32:43.217Z,18.20
2022-09-10T07:33:45.646Z,18.10
2022-09-10T07:34:47.346Z,18.10
2022-09-10T07:35:49.721Z,18.10
2022-09-10T07:36:51.383Z,18.10
2022-09-10T07:37:53.016Z,18.10
2022-09-10T07:38:57.627Z,18.00
2022-09-10T07:39:59.860Z,18.00
2022-09-10T07:41:02.771Z,18.10
2022-09-10T07:42:04.710Z,18.10
2022-09-10T07:43:07.009Z,18.10
2022-09-10T07:44:08.647Z,18.10
2022-09-10T07:45:16.095Z,18.00
2022-09-10T07:46:21.901Z,18.00
2022-09-10T07:47:25.261Z,18.00
2022-09-10T07:48:28.405Z,18.00
2022-09-10T07:49:30.214Z,18.00
2022-09-10T07:50:32.008Z,17.90
2022-09-10T07:51:34.621Z,17.90
2022-09-10T07:52:36.774Z,17.90
2022-09-10T07:53:44.414Z,17.90
2022-09-10T07:54:51.751Z,17.90
2022-09-10T07:56:05.042Z,17.90
2022-09-10T07:57:06.696Z,17.90
2022-09-10T07:58:08.318Z,17.80
2022-09-10T07:59:09.943Z,17.80
2022-09-10T08:00:15.130Z,17.80
2022-09-10T08:01:17.078Z,17.90
2022-09-10T08:02:18.876Z,18.00
2022-09-10T08:03:21.459Z,18.00
2022-09-10T08:04:23.558Z,18.00
2022-09-10T08:05:25.226Z,18.00
2022-09-10T08:06:26.898Z,17.90
2022-09-10T08:07:28.519Z,17.90
2022-09-10T08:08:31.845Z,17.90
2022-09-10T08:09:33.687Z,17.90
2022-09-10T08:10:35.351Z,18.00
2022-09-10T08:11:39.998Z,18.00
2022-09-10T08:12:41.725Z,18.10
2022-09-10T08:13:49.042Z,18.20
2022-09-10T08:14:51.168Z,18.20
2022-09-10T08:15:53.132Z,18.30
2022-09-10T08:16:54.829Z,18.40
2022-09-10T08:17:56.527Z,18.40
2022-09-10T08:18:58.204Z,18.30
2022-09-10T08:20:00.429Z,18.30
2022-09-10T08:21:03.808Z,18.30
2022-09-10T08:22:07.417Z,18.40
2022-09-10T08:23:12.060Z,18.40
2022-09-10T08:24:13.900Z,18.50
2022-09-10T08:25:15.656Z,18.50
2022-09-10T08:26:17.586Z,18.60
2022-09-10T08:27:19.238Z,18.60
2022-09-10T08:28:25.314Z,18.60
2022-09-10T08:29:28.344Z,18.60
2022-09-10T08:30:32.094Z,18.60
2022-09-10T08:31:34.622Z,18.60
2022-09-10T08:32:36.255Z,18.60
2022-09-10T08:33:39.734Z,18.60
2022-09-10T08:34:41.460Z,18.60
2022-09-10T08:35:43.102Z,18.60
2022-09-10T08:36:44.747Z,18.60
2022-09-10T08:37:46.389Z,18.60
2022-09-10T08:38:50.317Z,18.70
2022-09-10T08:39:52.107Z,18.80
2022-09-10T08:40:54.476Z,18.90
2022-09-10T08:42:00.919Z,19.00
2022-09-10T08:43:02.718Z,19.10
2022-09-10T08:44:09.926Z,19.10
2022-09-10T08:45:23.869Z,19.20
2022-09-10T08:46:29.491Z,19.30
2022-09-10T08:47:58.772Z,19.30
2022-09-10T08:49:09.317Z,19.30
2022-09-10T08:50:27.075Z,19.20
2022-09-10T08:51:33.335Z,19.20
2022-09-10T08:52:55.565Z,19.20
2022-09-10T08:54:05.567Z,19.00
2022-09-10T08:55:31.518Z,19.00
2022-09-10T08:56:34.185Z,19.00
2022-09-10T08:58:00.006Z,18.90
2022-09-10T08:59:10.870Z,18.90
2022-09-10T09:00:17.450Z,19.00
2022-09-10T09:01:45.722Z,19.00
2022-09-10T09:03:21.504Z,19.00
2022-09-10T09:04:39.361Z,19.10
2022-09-10T09:05:49.634Z,19.10
2022-09-10T09:06:56.562Z,19.10
2022-09-10T09:08:01.339Z,19.10
2022-09-10T09:09:04.576Z,19.10
2022-09-10T09:10:34.982Z,19.20
2022-09-10T09:11:55.306Z,19.10
2022-09-10T09:13:45.254Z,19.30
2022-09-10T09:15:11.489Z,19.40
2022-09-10T09:16:21.912Z,19.50
2022-09-10T09:17:32.151Z,19.70
2022-09-10T09:19:13.648Z,19.60
2022-09-10T09:20:18.169Z,19.60
2022-09-10T09:21:47.959Z,19.60
2022-09-10T09:23:13.048Z,19.70
2022-09-10T09:24:53.698Z,19.80
2022-09-10T09:26:11.356Z,19.80
2022-09-10T09:27:20.067Z,19.70
2022-09-10T09:28:45.555Z,19.60
2022-09-10T09:29:53.365Z,19.70
2022-09-10T09:30:57.767Z,19.80
2022-09-10T09:32:03.362Z,19.60
2022-09-10T09:33:14.761Z,19.50
2022-09-10T09:34:22.346Z,19.40
2022-09-10T09:35:38.654Z,19.40
2022-09-10T09:36:46.100Z,19.40
2022-09-10T09:37:48.228Z,19.40
2022-09-10T09:38:50.905Z,19.40
2022-09-10T09:40:14.996Z,19.40
2022-09-10T09:41:39.988Z,19.40
2022-09-10T09:43:16.777Z,19.50
2022-09-10T09:44:28.692Z,19.90
2022-09-10T09:45:44.001Z,20.00
2022-09-10T09:46:45.728Z,20.10
2022-09-10T09:47:50.021Z,20.00
2022-09-10T09:48:57.839Z,20.10
2022-09-10T09:50:00.423Z,20.20
2022-09-10T09:51:04.410Z,20.40
2022-09-10T09:52:26.799Z,20.50
2022-09-10T09:53:29.339Z,20.60
2022-09-10T09:55:10.013Z,20.50
2022-09-10T09:56:00.327Z,20.60
2022-09-10T09:57:02.907Z,20.50
2022-09-10T09:58:24.070Z,20.50
2022-09-10T09:59:31.519Z,20.40
2022-09-10T10:00:37.882Z,20.40
2022-09-10T10:01:42.764Z,20.40
2022-09-10T10:02:45.335Z,20.30
2022-09-10T10:03:58.574Z,20.20
2022-09-10T10:05:22.925Z,20.10
2022-09-10T10:06:26.481Z,20.00
2022-09-10T10:07:33.946Z,20.00
2022-09-10T10:08:52.225Z,20.10
2022-09-10T10:09:54.383Z,20.30
2022-09-10T10:10:56.408Z,20.40
2022-09-10T10:11:59.382Z,20.40
2022-09-10T10:13:01.070Z,20.40
2022-09-10T10:14:32.256Z,20.40
2022-09-10T10:15:44.164Z,20.50
2022-09-10T10:16:52.046Z,20.70
2022-09-10T10:17:54.885Z,20.80
2022-09-10T10:18:56.572Z,21.00
2022-09-10T10:20:07.319Z,21.10
2022-09-10T10:21:16.776Z,21.20
2022-09-10T10:22:30.018Z,21.40
2022-09-10T10:23:38.115Z,21.50
2022-09-10T10:24:40.184Z,21.50
2022-09-10T10:25:42.009Z,21.70
2022-09-10T10:26:45.698Z,21.80
2022-09-10T10:27:48.389Z,21.70
2022-09-10T10:28:53.843Z,21.70
2022-09-10T10:30:01.579Z,21.60
2022-09-10T10:31:04.655Z,21.60
2022-09-10T10:32:16.166Z,21.60
2022-09-10T10:33:23.260Z,21.50
2022-09-10T10:34:55.965Z,21.50
2022-09-10T10:36:03.992Z,21.50
2022-09-10T10:37:08.783Z,21.40
2022-09-10T10:38:37.748Z,21.30
2022-09-10T10:40:04.203Z,21.30
2022-09-10T10:41:41.624Z,21.10
2022-09-10T10:43:01.718Z,21.00
2022-09-10T10:44:25.281Z,20.90
2022-09-10T10:45:43.427Z,20.80
2022-09-10T10:46:50.023Z,20.80
2022-09-10T10:48:03.140Z,20.70
2022-09-10T10:49:32.416Z,20.60
2022-09-10T10:51:09.478Z,20.60
2022-09-10T10:52:19.286Z,20.60
2022-09-10T10:53:36.895Z,20.60
2022-09-10T10:55:14.369Z,20.60
2022-09-10T10:56:36.032Z,20.60
2022-09-10T10:58:06.985Z,20.90
2022-09-10T10:59:28.644Z,21.20
2022-09-10T11:00:36.488Z,21.40
2022-09-10T11:01:57.999Z,21.70
2022-09-10T11:03:21.248Z,22.00
2022-09-10T11:04:39.803Z,22.10
2022-09-10T11:05:45.274Z,22.00
2022-09-10T11:06:55.148Z,21.90
2022-09-10T11:08:06.721Z,21.70
2022-09-10T11:09:14.612Z,21.50
2022-09-10T11:10:21.921Z,21.40
2022-09-10T11:11:36.608Z,21.30
2022-09-10T11:13:03.158Z,21.10
2022-09-10T11:14:13.679Z,21.00
2022-09-10T11:15:30.356Z,20.90
2022-09-10T11:16:43.467Z,20.80
2022-09-10T11:17:51.792Z,20.80
2022-09-10T11:19:14.984Z,20.80
2022-09-10T11:20:28.315Z,20.80
2022-09-10T11:21:38.205Z,20.80
2022-09-10T11:22:50.583Z,20.70
2022-09-10T11:24:03.902Z,20.60
2022-09-10T11:25:31.393Z,20.70
2022-09-10T11:26:44.300Z,20.70
2022-09-10T11:27:52.021Z,20.80
2022-09-10T11:29:35.048Z,20.80
2022-09-10T11:30:41.635Z,21.00
2022-09-10T11:31:47.233Z,21.10
2022-09-10T11:33:00.518Z,21.20
2022-09-10T11:34:14.160Z,21.30
2022-09-10T11:35:24.674Z,21.40
2022-09-10T11:36:54.808Z,21.60
2022-09-10T11:38:30.159Z,21.50
2022-09-10T11:39:33.813Z,21.40
2022-09-10T11:40:44.357Z,21.30
2022-09-10T11:41:48.861Z,21.20
2022-09-10T11:42:56.314Z,21.20
2022-09-10T11:44:16.384Z,21.10
2022-09-10T11:45:40.160Z,21.10
2022-09-10T11:47:00.501Z,20.90
2022-09-10T11:48:23.368Z,20.70
2022-09-10T11:49:47.693Z,20.70
2022-09-10T11:51:01.936Z,20.60
2022-09-10T11:52:03.630Z,20.60
2022-09-10T11:53:07.553Z,20.60
2022-09-10T11:54:14.665Z,20.60
2022-09-10T11:55:21.346Z,20.70
2022-09-10T11:56:47.313Z,20.90
2022-09-10T11:58:04.693Z,21.10
2022-09-10T11:59:34.920Z,21.50
2022-09-10T12:00:45.341Z,21.80
2022-09-10T12:02:03.742Z,21.90
2022-09-10T12:03:39.030Z,22.10
2022-09-10T12:04:49.502Z,22.20
2022-09-10T12:06:36.834Z,22.10
2022-09-10T12:07:51.016Z,22.20
2022-09-10T12:09:35.652Z,22.30
2022-09-10T12:10:40.738Z,22.30
2022-09-10T12:12:04.804Z,22.30
2022-09-10T12:13:13.029Z,22.30
2022-09-10T12:14:18.566Z,22.40
2022-09-10T12:15:23.408Z,22.30
2022-09-10T12:16:57.523Z,22.30
2022-09-10T12:18:07.025Z,22.10
2022-09-10T12:19:23.157Z,22.00
2022-09-10T12:20:56.966Z,22.00
2022-09-10T12:22:25.789Z,21.90
2022-09-10T12:23:31.347Z,21.80
2022-09-10T12:24:36.554Z,21.70
2022-09-10T12:25:38.841Z,21.60
2022-09-10T12:26:44.366Z,21.60
2022-09-10T12:27:49.067Z,21.50
2022-09-10T12:28:53.759Z,21.50
2022-09-10T12:29:55.416Z,21.40
2022-09-10T12:31:03.714Z,21.30
2022-09-10T12:32:25.372Z,21.30
2022-09-10T12:33:27.676Z,21.30
2022-09-10T12:34:29.359Z,21.40
2022-09-10T12:35:38.032Z,21.40
2022-09-10T12:36:39.861Z,21.30
2022-09-10T12:37:41.532Z,21.30
2022-09-10T12:38:50.033Z,21.30
2022-09-10T12:40:24.560Z,21.30
2022-09-10T12:41:27.154Z,21.30
2022-09-10T12:42:34.610Z,21.30
2022-09-10T12:43:39.325Z,21.30
2022-09-10T12:44:45.412Z,21.40
2022-09-10T12:46:18.395Z,21.50
2022-09-10T12:47:26.067Z,21.60
2022-09-10T12:48:29.826Z,21.60
2022-09-10T12:49:31.535Z,21.60
2022-09-10T12:50:35.209Z,21.60
2022-09-10T12:51:51.988Z,21.60
2022-09-10T12:53:17.305Z,21.60
2022-09-10T12:54:33.741Z,21.60
2022-09-10T12:56:05.066Z,21.80
2022-09-10T12:57:35.995Z,21.90
2022-09-10T12:58:49.403Z,21.90
2022-09-10T13:00:18.275Z,22.10
2022-09-10T13:01:46.863Z,22.20
2022-09-10T13:02:58.738Z,22.30
2022-09-10T13:04:02.476Z,22.30
2022-09-10T13:05:17.320Z,22.30
2022-09-10T13:06:19.321Z,22.20
2022-09-10T13:07:22.562Z,22.30
2022-09-10T13:08:27.445Z,22.30
2022-09-10T13:09:41.433Z,22.40
2022-09-10T13:11:07.589Z,22.30
2022-09-10T13:12:22.630Z,22.30
2022-09-10T13:13:36.128Z,22.10
2022-09-10T13:14:44.703Z,22.00
2022-09-10T13:15:52.378Z,21.90
2022-09-10T13:16:55.437Z,21.80
2022-09-10T13:17:57.160Z,21.80
2022-09-10T13:19:14.100Z,21.70
2022-09-10T13:20:21.726Z,21.70
2022-09-10T13:21:23.349Z,21.50
2022-09-10T13:22:52.710Z,21.30
2022-09-10T13:23:58.168Z,21.30
2022-09-10T13:25:23.938Z,21.40
2022-09-10T13:26:28.601Z,21.50
2022-09-10T13:27:40.911Z,21.60
2022-09-10T13:28:42.915Z,21.60
2022-09-10T13:30:26.783Z,21.70
2022-09-10T13:31:38.687Z,21.70
2022-09-10T13:33:07.685Z,21.70
2022-09-10T13:34:15.361Z,21.70
2022-09-10T13:35:38.437Z,21.80
2022-09-10T13:36:52.285Z,21.80
2022-09-10T13:38:10.969Z,22.00
2022-09-10T13:39:15.326Z,22.10
2022-09-10T13:40:44.780Z,22.20
2022-09-10T13:42:14.676Z,22.30
2022-09-10T13:43:25.155Z,22.30
2022-09-10T13:45:03.838Z,22.30
2022-09-10T13:46:12.506Z,22.30
2022-09-10T13:47:19.231Z,22.40
2022-09-10T13:48:32.868Z,22.50
2022-09-10T13:49:59.822Z,22.70
2022-09-10T13:51:20.455Z,22.70
2022-09-10T13:52:29.154Z,22.80
2022-09-10T13:53:33.304Z,22.90
2022-09-10T13:54:56.509Z,22.90
2022-09-10T13:56:12.418Z,23.10
2022-09-10T13:57:29.995Z,23.10
2022-09-10T13:58:36.512Z,23.10
2022-09-10T13:59:40.816Z,23.10
2022-09-10T14:00:53.285Z,23.00
2022-09-10T14:01:56.090Z,22.90
2022-09-10T14:03:00.129Z,22.80
2022-09-10T14:04:20.730Z,22.60
2022-09-10T14:05:39.807Z,22.50
2022-09-10T14:06:41.507Z,22.40
2022-09-10T14:07:43.959Z,22.50
2022-09-10T14:08:56.264Z,22.60
2022-09-10T14:10:01.429Z,22.60
2022-09-10T14:11:14.384Z,22.50
2022-09-10T14:12:19.248Z,22.50
2022-09-10T14:13:30.755Z,22.50
2022-09-10T14:14:38.541Z,22.30
2022-09-10T14:15:40.534Z,22.20
2022-09-10T14:16:50.970Z,22.00
2022-09-10T14:17:57.299Z,22.00
2022-09-10T14:19:02.320Z,21.90
2022-09-10T14:20:18.115Z,21.80
2022-09-10T14:21:26.952Z,21.80
2022-09-10T14:22:31.837Z,21.80
2022-09-10T14:23:35.695Z,21.80
2022-09-10T14:24:40.109Z,21.80
2022-09-10T14:25:44.872Z,21.70
2022-09-10T14:27:19.401Z,21.70
2022-09-10T14:28:27.110Z,21.60
2022-09-10T14:29:28.806Z,21.50
2022-09-10T14:30:30.576Z,21.40
2022-09-10T14:31:38.749Z,21.30